createdAt,value
2023-10-31T00:01:30.538Z,13.33
2023-10-31T00:03:58.143Z,13.35
2023-10-31T00:19:03.779Z,13.56
2023-10-31T00:21:30.610Z,14.04
2023-10-31T00:23:57.501Z,14.00
2023-10-31T00:26:24.242Z,13.94
2023-10-31T00:28:53.828Z,13.89
2023-10-31T00:31:21.103Z,13.82
2023-10-31T00:33:48.162Z,13.73
2023-10-31T00:36:14.891Z,13.65
2023-10-31T00:38:41.633Z,13.65
2023-10-31T00:41:08.378Z,13.66
2023-10-31T00:43:35.541Z,13.65
2023-10-31T00:46:03.955Z,13.67
2023-10-31T00:48:36.786Z,13.64
2023-10-31T00:51:04.764Z,13.59
2023-10-31T00:53:32.161Z,13.54
2023-10-31T00:55:59.031Z,13.48
2023-10-31T00:58:25.804Z,13.41
2023-10-31T01:00:52.482Z,13.36
2023-10-31T01:03:20.182Z,13.32
2023-10-31T01:05:47.203Z,13.30
2023-10-31T01:08:14.138Z,13.28
2023-10-31T01:10:40.772Z,13.21
2023-10-31T01:13:07.474Z,13.17
2023-10-31T01:15:34.856Z,13.12
2023-10-31T01:18:01.615Z,13.09
2023-10-31T01:20:28.417Z,13.06
2023-10-31T01:22:55.391Z,13.01
2023-10-31T01:25:22.159Z,12.98
2023-10-31T01:27:48.949Z,12.97
2023-10-31T01:30:15.692Z,12.95
2023-10-31T01:32:42.473Z,12.94
2023-10-31T01:35:09.502Z,12.90
2023-10-31T01:37:36.433Z,12.87
2023-10-31T01:40:04.698Z,12.81
2023-10-31T01:42:31.651Z,12.75
2023-10-31T01:44:58.393Z,12.69
2023-10-31T01:47:25.366Z,12.66
2023-10-31T01:49:52.212Z,12.65
2023-10-31T01:52:19.013Z,12.64
2023-10-31T01:54:46.778Z,12.61
2023-10-31T01:57:13.622Z,12.59
2023-10-31T01:59:40.266Z,12.55
2023-10-31T02:02:08.645Z,12.52
2023-10-31T02:04:35.756Z,12.51
2023-10-31T02:07:02.688Z,12.45
2023-10-31T02:09:31.008Z,12.43
2023-10-31T02:11:57.758Z,12.46
2023-10-31T02:14:24.538Z,12.50
2023-10-31T02:16:51.854Z,12.51
2023-10-31T02:19:21.986Z,12.51
2023-10-31T02:21:48.758Z,12.50
2023-10-31T02:24:15.660Z,12.47
2023-10-31T02:26:42.359Z,12.42
2023-10-31T02:29:09.694Z,12.36
2023-10-31T02:31:36.473Z,12.34
2023-10-31T02:34:03.644Z,12.33
2023-10-31T02:36:31.609Z,12.33
2023-10-31T02:38:59.374Z,12.33
2023-10-31T02:41:26.119Z,12.32
2023-10-31T02:43:55.750Z,12.30
2023-10-31T02:46:22.501Z,12.28
2023-10-31T02:48:49.412Z,12.25
2023-10-31T02:51:16.462Z,12.22
2023-10-31T02:53:43.099Z,12.21
2023-10-31T02:56:09.980Z,12.22
2023-10-31T02:58:36.824Z,12.23
2023-10-31T03:01:03.931Z,12.21
2023-10-31T03:03:30.843Z,12.23
2023-10-31T03:05:57.836Z,12.25
2023-10-31T03:08:24.460Z,12.26
2023-10-31T03:10:52.261Z,12.24
2023-10-31T03:13:19.266Z,12.21
2023-10-31T03:15:46.849Z,12.22
2023-10-31T03:18:17.153Z,12.24
2023-10-31T03:20:44.831Z,12.25
2023-10-31T03:23:11.676Z,12.27
2023-10-31T03:25:38.648Z,12.28
2023-10-31T03:28:08.632Z,12.29
2023-10-31T03:30:35.822Z,12.31
2023-10-31T03:33:02.999Z,12.35
2023-10-31T03:35:29.990Z,12.37
2023-10-31T03:37:56.852Z,12.39
2023-10-31T03:40:23.692Z,12.39
2023-10-31T03:42:50.398Z,12.39
2023-10-31T03:45:17.246Z,12.37
2023-10-31T03:47:44.269Z,12.35
2023-10-31T03:50:11.323Z,12.35
2023-10-31T03:52:38.190Z,12.38
2023-10-31T03:55:05.742Z,12.39
2023-10-31T03:57:32.381Z,12.37
2023-10-31T03:59:59.141Z,12.33
2023-10-31T04:02:26.089Z,12.29
2023-10-31T04:04:52.830Z,12.24
2023-10-31T04:07:19.656Z,12.18
2023-10-31T04:09:46.392Z,12.17
2023-10-31T04:12:13.298Z,12.17
2023-10-31T04:14:40.193Z,12.19
2023-10-31T04:17:06.921Z,12.18
2023-10-31T04:19:33.806Z,12.15
2023-10-31T04:22:00.510Z,12.13
2023-10-31T04:24:27.397Z,12.10
2023-10-31T04:26:54.087Z,12.05
2023-10-31T04:29:20.872Z,12.04
2023-10-31T04:31:47.745Z,12.03
2023-10-31T04:34:14.735Z,12.03
2023-10-31T04:36:41.907Z,12.02
2023-10-31T04:39:10.565Z,11.99
2023-10-31T04:41:37.239Z,11.95
2023-10-31T04:44:04.318Z,11.93
2023-10-31T04:46:31.136Z,11.92
2023-10-31T04:48:58.244Z,11.94
2023-10-31T04:51:25.390Z,11.99
2023-10-31T04:53:58.848Z,12.03
2023-10-31T04:56:33.451Z,12.12
2023-10-31T04:59:06.123Z,12.24
2023-10-31T05:01:35.164Z,12.34
2023-10-31T05:04:12.721Z,12.40
2023-10-31T05:06:46.086Z,12.47
2023-10-31T05:09:26.665Z,12.52
2023-10-31T05:11:57.811Z,12.62
2023-10-31T05:14:27.911Z,12.72
2023-10-31T05:16:58.444Z,12.81
2023-10-31T05:19:27.633Z,12.88
2023-10-31T05:22:07.469Z,12.92
2023-10-31T05:24:38.762Z,12.95
2023-10-31T05:27:46.889Z,12.96
2023-10-31T05:34:19.148Z,12.95
2023-10-31T05:37:01.764Z,13.00
2023-10-31T05:39:48.743Z,13.11
2023-10-31T05:42:23.982Z,13.20
2023-10-31T05:45:37.966Z,13.28
2023-10-31T05:49:50.959Z,13.33
2023-10-31T05:52:17.453Z,13.36
2023-10-31T05:54:43.995Z,13.38
2023-10-31T05:57:10.634Z,13.43
2023-10-31T05:59:38.011Z,13.49
2023-10-31T06:02:05.333Z,13.58
2023-10-31T06:04:32.256Z,13.66
2023-10-31T06:06:59.405Z,13.71
2023-10-31T06:09:26.015Z,13.77
2023-10-31T06:11:52.914Z,13.82
2023-10-31T06:14:19.574Z,13.89
2023-10-31T06:16:46.284Z,13.95
2023-10-31T06:19:12.849Z,14.04
2023-10-31T06:21:41.115Z,14.13
2023-10-31T06:24:08.475Z,14.22
2023-10-31T06:26:35.155Z,14.33
2023-10-31T06:29:18.081Z,14.46
2023-10-31T06:31:49.045Z,14.60
2023-10-31T06:34:15.708Z,14.66
2023-10-31T06:36:43.105Z,14.68
2023-10-31T06:39:11.678Z,14.73
2023-10-31T06:41:39.230Z,14.80
2023-10-31T06:44:08.333Z,14.90
2023-10-31T06:46:44.360Z,15.01
2023-10-31T06:49:11.851Z,15.12
2023-10-31T06:51:39.175Z,15.20
2023-10-31T06:54:08.675Z,15.28
2023-10-31T06:56:36.448Z,15.33
2023-10-31T06:59:03.405Z,15.36
2023-10-31T07:01:30.174Z,15.36
2023-10-31T07:03:57.169Z,15.35
2023-10-31T07:06:24.206Z,15.37
2023-10-31T07:08:51.682Z,15.44
2023-10-31T07:11:18.439Z,15.51
2023-10-31T07:13:45.327Z,15.56
2023-10-31T07:16:12.202Z,15.60
2023-10-31T07:18:39.176Z,15.60
2023-10-31T07:21:07.338Z,15.60
2023-10-31T07:23:35.989Z,15.58
2023-10-31T07:26:05.047Z,15.56
2023-10-31T07:28:32.197Z,15.58
2023-10-31T07:31:01.390Z,15.64
2023-10-31T07:33:28.146Z,15.73
2023-10-31T07:35:55.253Z,15.83
2023-10-31T07:38:22.242Z,15.92
2023-10-31T07:40:49.241Z,16.02
2023-10-31T07:43:16.399Z,16.11
2023-10-31T07:45:43.452Z,16.18
2023-10-31T07:48:10.340Z,16.23
2023-10-31T07:50:37.131Z,16.29
2023-10-31T07:53:03.837Z,16.34
2023-10-31T07:55:31.124Z,16.39
2023-10-31T07:57:57.864Z,16.44
2023-10-31T08:00:24.695Z,16.47
2023-10-31T08:02:52.898Z,16.50
2023-10-31T08:05:20.834Z,16.58
2023-10-31T08:07:47.610Z,16.68
2023-10-31T08:10:14.408Z,16.77
2023-10-31T08:12:44.160Z,16.83
2023-10-31T08:15:11.017Z,16.90
2023-10-31T08:17:37.897Z,16.98
2023-10-31T08:20:05.411Z,17.05
2023-10-31T08:22:32.563Z,17.11
2023-10-31T08:24:59.591Z,17.17
2023-10-31T08:27:26.126Z,17.22
2023-10-31T08:29:52.671Z,17.29
2023-10-31T08:32:19.889Z,17.38
2023-10-31T08:34:46.668Z,17.47
2023-10-31T08:37:13.404Z,17.57
2023-10-31T08:39:40.369Z,17.67
2023-10-31T08:42:07.079Z,17.78
2023-10-31T08:44:34.339Z,17.88
2023-10-31T08:47:01.199Z,17.96
2023-10-31T08:49:28.228Z,18.04
2023-10-31T08:51:55.040Z,18.10
2023-10-31T08:54:22.017Z,18.15
2023-10-31T08:56:48.873Z,18.19
2023-10-31T08:59:15.808Z,18.23
2023-10-31T09:01:42.752Z,18.27
2023-10-31T09:04:09.544Z,18.37
2023-10-31T09:06:36.337Z,18.50
2023-10-31T09:09:04.529Z,18.59
2023-10-31T09:11:31.296Z,18.68
2023-10-31T09:13:58.230Z,18.77
2023-10-31T09:16:25.387Z,18.88
2023-10-31T09:18:52.704Z,18.99
2023-10-31T09:21:19.349Z,19.10
2023-10-31T09:23:46.071Z,19.20
2023-10-31T09:26:12.865Z,19.30
2023-10-31T09:28:40.973Z,19.40
2023-10-31T09:31:07.586Z,19.50
2023-10-31T09:33:34.365Z,19.59
2023-10-31T09:36:02.013Z,19.71
2023-10-31T09:38:29.583Z,19.81
2023-10-31T09:40:56.358Z,19.90
2023-10-31T09:43:23.145Z,19.98
2023-10-31T09:45:50.085Z,20.07
2023-10-31T09:48:17.585Z,20.13
2023-10-31T09:50:44.340Z,20.16
2023-10-31T09:53:11.656Z,20.17
2023-10-31T09:55:38.933Z,20.19
2023-10-31T09:58:05.664Z,20.24
2023-10-31T10:00:32.505Z,20.32
2023-10-31T10:03:00.096Z,20.43
2023-10-31T10:05:27.129Z,20.52
2023-10-31T10:07:56.213Z,20.62
2023-10-31T10:10:23.133Z,20.71
2023-10-31T10:12:52.235Z,20.79
2023-10-31T10:15:19.621Z,20.85
2023-10-31T10:17:52.953Z,20.91
2023-10-31T10:20:20.168Z,20.97
2023-10-31T10:22:47.398Z,21.03
2023-10-31T10:25:21.941Z,21.10
2023-10-31T10:27:48.891Z,21.16
2023-10-31T10:30:15.894Z,21.22
2023-10-31T10:32:42.738Z,21.27
2023-10-31T10:35:10.211Z,21.32
2023-10-31T10:37:38.037Z,21.39
2023-10-31T10:40:06.586Z,21.45
2023-10-31T10:42:34.289Z,21.52
2023-10-31T10:45:04.219Z,21.57
2023-10-31T10:47:32.105Z,21.63
2023-10-31T10:50:03.401Z,21.71
2023-10-31T10:52:37.035Z,21.76
2023-10-31T10:55:09.601Z,21.81
2023-10-31T10:58:09.795Z,21.88
2023-10-31T11:00:36.948Z,21.95
2023-10-31T11:03:03.596Z,22.02
2023-10-31T11:05:30.405Z,22.10
2023-10-31T11:07:59.496Z,22.17
2023-10-31T11:10:27.202Z,22.26
2023-10-31T11:12:54.165Z,22.36
2023-10-31T11:15:20.827Z,22.43
2023-10-31T11:17:47.737Z,22.51
2023-10-31T11:20:16.200Z,22.59
2023-10-31T11:22:46.994Z,22.66
2023-10-31T11:25:20.175Z,22.74
2023-10-31T11:27:53.783Z,22.83
2023-10-31T11:30:28.113Z,22.90
2023-10-31T11:32:55.722Z,22.97
2023-10-31T11:35:23.087Z,23.03
2023-10-31T11:37:53.276Z,23.11
2023-10-31T11:40:22.447Z,23.21
2023-10-31T11:42:54.745Z,23.29
2023-10-31T11:45:32.860Z,23.36
2023-10-31T11:47:59.671Z,23.42
2023-10-31T11:50:26.812Z,23.48
2023-10-31T11:53:06.860Z,23.57
2023-10-31T11:55:39.994Z,23.66
2023-10-31T11:58:20.274Z,23.73
2023-10-31T12:00:48.872Z,23.81
2023-10-31T12:03:18.571Z,23.88
2023-10-31T12:05:55.557Z,23.98
2023-10-31T12:08:30.252Z,24.06
2023-10-31T12:11:23.472Z,24.10
2023-10-31T12:14:00.732Z,24.15
2023-10-31T12:16:29.130Z,24.23
2023-10-31T12:19:01.124Z,24.33
2023-10-31T12:21:43.428Z,24.40
2023-10-31T12:26:31.264Z,24.33
2023-10-31T12:29:19.023Z,25.08
2023-10-31T12:31:51.871Z,25.70
2023-10-31T12:34:21.717Z,26.82
2023-10-31T12:36:50.981Z,27.92
2023-10-31T12:39:19.620Z,28.89
2023-10-31T12:41:47.286Z,29.96
2023-10-31T12:44:16.283Z,30.99
2023-10-31T12:46:43.884Z,31.77
2023-10-31T12:49:21.948Z,32.40
2023-10-31T12:52:03.291Z,32.88
2023-10-31T12:54:38.518Z,33.31
2023-10-31T12:57:09.473Z,33.76
2023-10-31T12:59:39.969Z,33.99
2023-10-31T13:02:08.859Z,33.94
2023-10-31T13:04:37.065Z,33.68
2023-10-31T13:07:09.338Z,33.40
2023-10-31T13:09:40.026Z,33.12
2023-10-31T13:12:08.918Z,33.11
2023-10-31T13:14:40.948Z,33.10
2023-10-31T13:17:08.562Z,33.17
2023-10-31T13:19:36.294Z,33.29
2023-10-31T13:22:03.973Z,33.22
2023-10-31T13:24:32.647Z,32.93
2023-10-31T13:27:02.034Z,32.84
2023-10-31T13:29:34.825Z,32.80
2023-10-31T13:32:02.942Z,32.72
2023-10-31T13:34:34.166Z,32.58
2023-10-31T13:37:04.177Z,32.36
2023-10-31T13:39:32.224Z,32.10
2023-10-31T13:41:59.986Z,31.70
2023-10-31T13:44:27.591Z,31.25
2023-10-31T13:46:55.777Z,30.91
2023-10-31T13:49:23.594Z,30.65
2023-10-31T13:51:51.249Z,30.40
2023-10-31T13:54:19.322Z,29.93
2023-10-31T13:56:48.670Z,29.39
2023-10-31T13:59:16.422Z,28.81
2023-10-31T14:01:44.011Z,28.41
2023-10-31T14:04:11.871Z,28.08
2023-10-31T14:06:39.683Z,27.85
2023-10-31T14:09:08.541Z,27.56
2023-10-31T14:11:36.261Z,27.27
2023-10-31T14:14:07.802Z,26.96
2023-10-31T14:16:35.437Z,26.60
2023-10-31T14:19:03.901Z,26.27
2023-10-31T14:21:31.818Z,25.96
2023-10-31T14:24:04.940Z,25.68
2023-10-31T14:26:39.942Z,25.39
2023-10-31T14:29:08.044Z,25.13
2023-10-31T14:31:44.893Z,24.88
2023-10-31T14:34:12.688Z,24.67
2023-10-31T14:36:40.722Z,24.45
2023-10-31T14:39:09.820Z,24.22
2023-10-31T14:41:37.584Z,24.02
2023-10-31T14:44:05.776Z,23.85
2023-10-31T14:46:33.801Z,23.66
2023-10-31T14:49:01.511Z,23.49
2023-10-31T14:51:29.157Z,23.33
2023-10-31T14:53:56.823Z,23.16
2023-10-31T14:56:24.301Z,23.02
2023-10-31T14:58:51.877Z,22.88
2023-10-31T15:01:19.496Z,22.74
2023-10-31T15:03:50.195Z,22.58
2023-10-31T15:06:18.109Z,22.43
2023-10-31T15:08:46.924Z,22.30
2023-10-31T15:11:17.556Z,22.13
2023-10-31T15:13:46.410Z,21.99
2023-10-31T15:16:14.131Z,21.86
2023-10-31T15:18:42.929Z,21.75
2023-10-31T15:21:11.861Z,21.63
2023-10-31T15:23:39.658Z,21.51
2023-10-31T15:26:15.240Z,21.41
2023-10-31T15:28:44.091Z,21.33
2023-10-31T15:31:12.375Z,21.25
2023-10-31T15:33:43.190Z,21.11
2023-10-31T15:36:13.013Z,20.97
2023-10-31T15:38:41.393Z,20.86
2023-10-31T15:41:17.116Z,20.76
2023-10-31T15:43:46.864Z,20.64
2023-10-31T15:46:14.739Z,20.54
2023-10-31T15:48:43.319Z,20.47
2023-10-31T15:51:11.220Z,20.40
2023-10-31T15:53:39.003Z,20.36
2023-10-31T15:56:10.601Z,20.30
2023-10-31T15:58:38.365Z,20.21
2023-10-31T16:01:06.353Z,20.07
2023-10-31T16:03:33.937Z,20.03
2023-10-31T16:06:01.611Z,19.98
2023-10-31T16:08:29.316Z,19.92
2023-10-31T16:10:58.667Z,19.83
2023-10-31T16:13:28.044Z,19.76
2023-10-31T16:15:55.929Z,19.70
2023-10-31T16:18:23.557Z,19.62
2023-10-31T16:20:52.209Z,19.54
2023-10-31T16:23:21.772Z,19.47
2023-10-31T16:25:49.883Z,19.42
2023-10-31T16:28:17.550Z,19.38
2023-10-31T16:30:45.053Z,19.34
2023-10-31T16:33:12.616Z,19.32
2023-10-31T16:35:40.467Z,19.30
2023-10-31T16:38:08.219Z,19.29
2023-10-31T16:40:35.884Z,19.27
2023-10-31T16:43:03.934Z,19.24
2023-10-31T16:45:31.595Z,19.21
2023-10-31T16:47:59.282Z,19.21
2023-10-31T16:50:30.914Z,19.19
2023-10-31T16:53:00.381Z,19.17
2023-10-31T16:55:29.529Z,19.14
2023-10-31T16:57:57.489Z,19.12
2023-10-31T17:00:25.178Z,19.08
2023-10-31T17:02:52.784Z,19.05
2023-10-31T17:05:20.611Z,19.02
2023-10-31T17:07:48.240Z,19.01
2023-10-31T17:10:16.595Z,19.00
2023-10-31T17:12:44.078Z,18.99
2023-10-31T17:15:11.554Z,19.00
2023-10-31T17:17:39.080Z,18.98
2023-10-31T17:20:07.493Z,18.98
2023-10-31T17:22:37.050Z,18.99
2023-10-31T17:25:07.764Z,18.99
2023-10-31T17:27:35.687Z,18.99
2023-10-31T17:30:06.041Z,19.01
2023-10-31T17:32:33.993Z,19.01
2023-10-31T17:35:02.462Z,19.00
2023-10-31T17:37:30.231Z,18.99
2023-10-31T17:39:57.900Z,18.95
2023-10-31T17:42:28.040Z,18.93
2023-10-31T17:44:55.768Z,18.91
2023-10-31T17:47:23.452Z,18.88
2023-10-31T17:49:51.036Z,18.85
2023-10-31T17:52:18.865Z,18.82
2023-10-31T17:54:47.050Z,18.79
2023-10-31T17:57:19.802Z,18.75
2023-10-31T17:59:47.706Z,18.77
2023-10-31T18:02:15.631Z,18.81
2023-10-31T18:04:43.462Z,18.83
2023-10-31T18:07:11.036Z,18.85
2023-10-31T18:09:38.648Z,18.84
2023-10-31T18:12:07.148Z,18.84
2023-10-31T18:14:35.417Z,18.82
2023-10-31T18:17:03.192Z,18.79
2023-10-31T18:19:30.879Z,18.75
2023-10-31T18:22:01.078Z,18.72
2023-10-31T18:24:29.424Z,18.70
2023-10-31T18:26:57.079Z,18.73
2023-10-31T18:29:25.231Z,18.77
2023-10-31T18:31:52.844Z,18.79
2023-10-31T18:34:20.592Z,18.79
2023-10-31T18:36:48.596Z,18.77
2023-10-31T18:39:16.320Z,18.74
2023-10-31T18:41:55.785Z,18.70
2023-10-31T18:44:39.559Z,18.66
2023-10-31T18:47:14.114Z,18.65
2023-10-31T18:49:41.992Z,18.66
2023-10-31T18:52:09.555Z,18.64
2023-10-31T18:54:37.231Z,18.61
2023-10-31T18:57:05.017Z,18.58
2023-10-31T18:59:35.219Z,18.55
2023-10-31T19:02:03.633Z,18.51
2023-10-31T19:04:31.363Z,18.47
2023-10-31T19:06:59.341Z,18.46
2023-10-31T19:09:28.570Z,18.48
2023-10-31T19:11:56.184Z,18.48
2023-10-31T19:14:24.318Z,18.48
2023-10-31T19:16:52.216Z,18.45
2023-10-31T19:19:19.881Z,18.42
2023-10-31T19:21:47.654Z,18.37
2023-10-31T19:24:15.208Z,18.31
2023-10-31T19:26:43.516Z,18.28
2023-10-31T19:29:12.486Z,18.28
2023-10-31T19:31:40.171Z,18.27
2023-10-31T19:34:07.901Z,18.26
2023-10-31T19:36:36.183Z,18.23
2023-10-31T19:39:03.953Z,18.21
2023-10-31T19:41:32.570Z,18.20
2023-10-31T19:44:00.101Z,18.20
2023-10-31T19:46:28.080Z,18.21
2023-10-31T19:48:56.639Z,18.21
2023-10-31T19:51:24.305Z,18.18
2023-10-31T19:53:52.016Z,18.15
2023-10-31T19:56:20.381Z,18.12
2023-10-31T19:58:48.437Z,18.09
2023-10-31T20:01:16.465Z,18.06
2023-10-31T20:03:44.203Z,18.05
2023-10-31T20:06:12.127Z,18.05
2023-10-31T20:08:39.941Z,18.02
2023-10-31T20:11:12.529Z,17.99
2023-10-31T20:13:40.740Z,17.95
2023-10-31T20:16:09.072Z,17.89
2023-10-31T20:18:36.898Z,17.88
2023-10-31T20:21:05.168Z,17.89
2023-10-31T20:23:33.174Z,17.90
2023-10-31T20:26:00.794Z,17.88
2023-10-31T20:28:28.408Z,17.84
2023-10-31T20:30:55.998Z,17.78
2023-10-31T20:33:24.023Z,17.73
2023-10-31T20:35:51.793Z,17.69
2023-10-31T20:38:19.566Z,17.68
2023-10-31T20:40:47.153Z,17.66
2023-10-31T20:43:14.840Z,17.66
2023-10-31T20:45:42.977Z,17.64
2023-10-31T20:48:10.542Z,17.61
2023-10-31T20:50:38.399Z,17.57
2023-10-31T20:53:06.473Z,17.55
2023-10-31T20:55:34.017Z,17.54
2023-10-31T20:58:01.593Z,17.55
2023-10-31T21:00:29.295Z,17.53
2023-10-31T21:02:57.048Z,17.50
2023-10-31T21:05:24.832Z,17.46
2023-10-31T21:07:53.819Z,17.42
2023-10-31T21:10:22.303Z,17.41
2023-10-31T21:12:49.976Z,17.41
2023-10-31T21:15:17.733Z,17.40
2023-10-31T21:17:45.675Z,17.38
2023-10-31T21:20:14.287Z,17.34
2023-10-31T21:22:42.870Z,17.30
2023-10-31T21:25:10.433Z,17.27
2023-10-31T21:27:38.045Z,17.26
2023-10-31T21:30:06.468Z,17.23
2023-10-31T21:32:34.192Z,17.19
2023-10-31T21:35:02.021Z,17.13
2023-10-31T21:37:29.775Z,17.08
2023-10-31T21:39:58.041Z,17.06
2023-10-31T21:42:25.502Z,17.06
2023-10-31T21:44:53.004Z,17.05
2023-10-31T21:47:20.773Z,17.03
2023-10-31T21:49:48.382Z,16.99
2023-10-31T21:52:15.944Z,16.95
2023-10-31T21:54:43.450Z,16.92
2023-10-31T21:57:10.906Z,16.89
2023-10-31T21:59:38.441Z,16.88
2023-10-31T22:02:06.584Z,16.88
2023-10-31T22:04:34.507Z,16.87
2023-10-31T22:07:02.916Z,16.84
2023-10-31T22:09:30.502Z,16.80
2023-10-31T22:11:58.473Z,16.80
2023-10-31T22:14:26.820Z,16.80
2023-10-31T22:16:54.411Z,16.81
2023-10-31T22:19:21.872Z,16.80
2023-10-31T22:21:49.274Z,16.76
2023-10-31T22:24:16.786Z,16.73
2023-10-31T22:26:44.350Z,16.72
2023-10-31T22:29:13.257Z,16.71
2023-10-31T22:31:40.913Z,16.71
2023-10-31T22:34:08.502Z,16.74
2023-10-31T22:36:35.972Z,16.76
2023-10-31T22:39:03.687Z,16.74
2023-10-31T22:41:31.600Z,16.73
2023-10-31T22:43:59.528Z,16.71
2023-10-31T22:46:26.954Z,16.71
2023-10-31T22:48:54.539Z,16.70
2023-10-31T22:51:22.036Z,16.69
2023-10-31T22:53:49.670Z,16.69
2023-10-31T22:56:17.151Z,16.68
2023-10-31T22:58:44.548Z,16.63
2023-10-31T23:01:12.610Z,16.58
2023-10-31T23:03:40.208Z,16.51
2023-10-31T23:06:07.884Z,16.47
2023-10-31T23:08:35.554Z,16.46
2023-10-31T23:11:03.605Z,16.48
2023-10-31T23:13:31.166Z,16.51
2023-10-31T23:15:58.738Z,16.52
2023-10-31T23:18:26.230Z,16.49
2023-10-31T23:20:53.699Z,16.46
2023-10-31T23:23:23.053Z,16.39
2023-10-31T23:25:50.805Z,16.35
2023-10-31T23:28:19.710Z,16.33
2023-10-31T23:30:54.775Z,16.32
2023-10-31T23:33:27.823Z,16.32
2023-10-31T23:35:56.511Z,16.33
2023-10-31T23:38:24.074Z,16.33
2023-10-31T23:40:51.832Z,16.33
2023-10-31T23:43:19.823Z,16.37
2023-10-31T23:45:47.490Z,16.42
2023-10-31T23:48:15.088Z,16.46
2023-10-31T23:50:42.700Z,16.48
2023-10-31T23:53:10.271Z,16.48
2023-10-31T23:55:37.964Z,16.45
2023-10-31T23:58:07.823Z,16.41
